Time;durP1;ratioP1;P1;durP2;ratioP2;P2;SDS_P1;SDS_P2;PMS_P1;PMS_P2;Temp;Humidity;BMP_temperature;BMP_pressure;BME280_temperature;BME280_humidity;BME280_pressure;Samples;Min_cycle;Max_cycle;Signal;HPM_P1;HPM_P2
2022/05/10 00:00:30;;;;;;;12.13;5.85;;;16.80;77.00;;;;;;5035758;28;92544;-72
2022/05/10 00:03:00;;;;;;;8.38;5.28;;;16.80;77.00;;;;;;5036628;28;92740;-72
2022/05/10 00:05:32;;;;;;;9.02;5.72;;;16.80;76.80;;;;;;5036479;28;93148;-72
2022/05/10 00:08:00;;;;;;;10.30;5.57;;;16.90;77.00;;;;;;5034850;28;95711;-72
2022/05/10 00:10:28;;;;;;;9.40;5.50;;;16.90;77.00;;;;;;5035360;28;92476;-72
2022/05/10 00:12:56;;;;;;;10.50;5.10;;;16.90;76.60;;;;;;5034696;28;92540;-72
2022/05/10 00:15:23;;;;;;;8.85;4.50;;;16.90;76.50;;;;;;5017934;28;95136;-72
2022/05/10 00:17:51;;;;;;;11.60;5.97;;;16.90;76.40;;;;;;5001561;28;93326;-72
2022/05/10 00:20:23;;;;;;;11.20;5.85;;;16.90;76.30;;;;;;5002079;28;92425;-72
2022/05/10 00:22:51;;;;;;;10.68;5.18;;;16.90;76.30;;;;;;5017147;28;95118;-72
2022/05/10 00:25:24;;;;;;;11.80;6.28;;;16.90;76.20;;;;;;5017990;28;95880;-72
2022/05/10 00:27:51;;;;;;;7.20;5.93;;;16.90;76.20;;;;;;5036058;28;93093;-72
2022/05/10 00:30:19;;;;;;;7.75;4.95;;;16.90;76.10;;;;;;5018143;28;92397;-72
2022/05/10 00:32:46;;;;;;;8.18;5.10;;;16.90;75.90;;;;;;5017855;28;92639;-72
2022/05/10 00:35:20;;;;;;;9.48;5.40;;;16.90;75.90;;;;;;5036304;28;93559;-72
2022/05/10 00:37:48;;;;;;;10.20;6.20;;;16.90;76.20;;;;;;5036104;28;93064;-72
2022/05/10 00:40:19;;;;;;;6.93;4.25;;;16.90;75.40;;;;;;5035484;28;92199;-72
2022/05/10 00:43:09;;;;;;;10.07;4.90;;;17.00;75.40;;;;;;5017837;28;92794;-72
2022/05/10 00:45:50;;;;;;;10.68;5.18;;;17.00;75.90;;;;;;5022750;28;93503;-72
2022/05/10 00:48:29;;;;;;;7.60;4.90;;;17.00;76.30;;;;;;5016619;28;94988;-72
2022/05/10 00:51:11;;;;;;;5.72;4.80;;;17.00;76.60;;;;;;5017599;28;92461;-72
2022/05/10 00:53:47;;;;;;;8.57;4.70;;;17.00;76.90;;;;;;5034585;28;92522;-72
2022/05/10 00:56:36;;;;;;;11.15;5.78;;;16.90;77.00;;;;;;5035908;28;92794;-72
2022/05/10 00:59:14;;;;;;;7.55;4.88;;;16.90;77.00;;;;;;5035719;28;96527;-72
2022/05/10 01:01:45;;;;;;;8.13;5.05;;;16.90;77.00;;;;;;5017661;28;92487;-72
2022/05/10 01:04:34;;;;;;;6.78;5.03;;;16.80;76.90;;;;;;5036064;28;92455;-72
2022/05/10 01:07:10;;;;;;;9.50;5.43;;;16.80;76.70;;;;;;5036209;28;92481;-72
2022/05/10 01:09:54;;;;;;;9.35;6.05;;;16.80;76.60;;;;;;5035786;28;92419;-72
2022/05/10 01:12:50;;;;;;;6.25;5.63;;;16.80;76.50;;;;;;5034177;28;92520;-72
2022/05/10 01:15:24;;;;;;;9.52;5.55;;;16.80;76.70;;;;;;5020077;28;94942;-72
2022/05/10 01:17:55;;;;;;;7.45;5.25;;;16.70;76.70;;;;;;5035235;28;93540;-72
2022/05/10 01:20:37;;;;;;;10.23;5.82;;;16.70;76.90;;;;;;5035890;28;92786;-72
2022/05/10 01:23:16;;;;;;;10.52;7.10;;;16.80;77.00;;;;;;5017378;28;93022;-72
2022/05/10 01:26:01;;;;;;;7.05;6.00;;;16.80;77.00;;;;;;5036052;28;92517;-72
2022/05/10 01:28:34;;;;;;;10.80;6.30;;;16.70;77.40;;;;;;5020844;28;95733;-72
2022/05/10 01:31:09;;;;;;;8.17;7.33;;;16.60;77.90;;;;;;5004126;28;95528;-72
2022/05/10 01:33:52;;;;;;;11.15;6.97;;;16.60;78.10;;;;;;5039770;28;91714;-72
2022/05/10 01:36:36;;;;;;;9.77;7.57;;;16.60;79.00;;;;;;5021328;28;92444;-72
2022/05/10 01:39:26;;;;;;;11.50;7.17;;;16.50;78.60;;;;;;5020900;28;93192;-71
2022/05/10 01:42:17;;;;;;;10.43;7.95;;;16.50;78.70;;;;;;5037629;28;94905;-71
2022/05/10 01:45:03;;;;;;;11.95;7.80;;;16.50;78.80;;;;;;5020444;28;92498;-72
2022/05/10 01:47:36;;;;;;;12.55;7.25;;;16.50;79.00;;;;;;5038948;28;92425;-72
2022/05/10 01:50:21;;;;;;;17.17;8.10;;;16.50;79.10;;;;;;5020144;28;95664;-72
2022/05/10 01:53:05;;;;;;;8.85;6.90;;;16.40;79.30;;;;;;5039012;28;92928;-72
2022/05/10 01:55:34;;;;;;;10.20;7.15;;;16.50;80.00;;;;;;5021022;28;92627;-72
2022/05/10 01:58:11;;;;;;;10.93;8.48;;;16.50;79.50;;;;;;5021186;28;92415;-72
2022/05/10 02:00:39;;;;;;;10.93;8.40;;;16.50;79.70;;;;;;5037522;28;95004;-72
2022/05/10 02:03:14;;;;;;;9.50;7.60;;;16.40;79.60;;;;;;5019767;28;108850;-71
2022/05/10 02:06:06;;;;;;;11.13;8.25;;;16.50;79.60;;;;;;5038855;28;92472;-72
2022/05/10 02:08:58;;;;;;;12.80;7.93;;;16.40;79.80;;;;;;5037695;28;94892;-72
2022/05/10 02:11:34;;;;;;;9.57;8.55;;;16.40;79.90;;;;;;5020140;28;95863;-72
2022/05/10 02:14:09;;;;;;;11.07;9.30;;;16.40;80.00;;;;;;5038321;28;96524;-72
2022/05/10 02:16:55;;;;;;;12.18;8.65;;;16.40;80.20;;;;;;5038822;28;92372;-72
2022/05/10 02:19:28;;;;;;;11.75;9.45;;;16.40;80.30;;;;;;5038216;28;92369;-72
2022/05/10 02:22:06;;;;;;;11.93;8.37;;;16.30;80.40;;;;;;5038604;28;93175;-72
2022/05/10 02:24:43;;;;;;;11.90;9.55;;;16.30;80.50;;;;;;5019973;28;94583;-72
2022/05/10 02:27:21;;;;;;;13.40;9.43;;;16.40;80.60;;;;;;5038690;28;91607;-72
2022/05/10 02:30:11;;;;;;;12.98;9.40;;;16.40;80.80;;;;;;5020103;28;92526;-72
2022/05/10 02:33:07;;;;;;;13.07;10.05;;;16.30;80.90;;;;;;5038236;28;93295;-72
2022/05/10 02:35:46;;;;;;;13.65;9.50;;;16.40;81.10;;;;;;5034870;28;95531;-71
2022/05/10 02:38:19;;;;;;;13.75;9.60;;;16.40;81.20;;;;;;5018743;28;92484;-72
2022/05/10 02:40:47;;;;;;;12.67;9.43;;;16.30;81.20;;;;;;5038370;28;92466;-72
2022/05/10 02:43:24;;;;;;;13.05;9.95;;;16.30;81.30;;;;;;5002894;28;95673;-72
2022/05/10 02:45:51;;;;;;;13.35;11.82;;;16.40;82.00;;;;;;5037898;28;93103;-71
2022/05/10 02:48:30;;;;;;;15.30;11.05;;;16.40;81.40;;;;;;5037233;28;92402;-72
2022/05/10 02:50:58;;;;;;;15.73;10.48;;;16.40;81.40;;;;;;5035899;28;92508;-71
2022/05/10 02:53:26;;;;;;;16.85;10.93;;;16.40;81.40;;;;;;5019579;28;92573;-72
2022/05/10 02:56:03;;;;;;;15.05;11.30;;;16.40;81.40;;;;;;5018883;28;95065;-72
2022/05/10 02:58:32;;;;;;;14.68;11.48;;;16.50;81.50;;;;;;5019089;28;92404;-72
2022/05/10 03:01:04;;;;;;;13.65;11.10;;;16.50;81.50;;;;;;5017835;28;94927;-72
2022/05/10 03:03:33;;;;;;;18.55;11.48;;;16.50;81.70;;;;;;5037171;28;93176;-72
2022/05/10 03:06:00;;;;;;;17.02;11.27;;;16.50;81.70;;;;;;5035024;28;95530;-72
2022/05/10 03:08:27;;;;;;;16.52;12.07;;;16.50;81.80;;;;;;5018964;28;92366;-72
2022/05/10 03:10:55;;;;;;;13.65;11.77;;;16.50;81.80;;;;;;5019088;28;92559;-72
2022/05/10 03:13:21;;;;;;;17.65;13.07;;;16.50;82.00;;;;;;5035235;28;93411;-72
2022/05/10 03:15:48;;;;;;;17.27;12.60;;;16.50;82.00;;;;;;5035365;28;93840;-72
2022/05/10 03:18:15;;;;;;;15.40;12.60;;;16.50;82.00;;;;;;5018563;28;91727;-72
2022/05/10 03:20:43;;;;;;;15.20;11.88;;;16.50;82.20;;;;;;5036826;28;92457;-72
2022/05/10 03:23:10;;;;;;;14.32;12.63;;;16.50;82.40;;;;;;5018403;28;94933;-72
2022/05/10 03:25:37;;;;;;;20.33;13.07;;;16.50;82.40;;;;;;5033818;28;97237;-72
2022/05/10 03:28:06;;;;;;;18.25;13.77;;;16.50;82.30;;;;;;5036952;28;92460;-72
2022/05/10 03:30:33;;;;;;;15.05;13.48;;;16.50;82.60;;;;;;5036571;28;93123;-72
2022/05/10 03:33:00;;;;;;;15.80;12.27;;;16.50;82.60;;;;;;5017911;28;112476;-71
2022/05/10 03:35:27;;;;;;;19.05;14.15;;;16.50;82.80;;;;;;5036442;28;93141;-71
2022/05/10 03:37:54;;;;;;;15.88;13.07;;;16.50;82.70;;;;;;5018570;28;92461;-72
2022/05/10 03:40:21;;;;;;;17.17;13.50;;;16.50;82.70;;;;;;5018534;28;93029;-72
2022/05/10 03:42:52;;;;;;;20.80;14.88;;;16.50;82.70;;;;;;5035642;28;92441;-72
2022/05/10 03:45:21;;;;;;;18.13;13.13;;;16.50;82.70;;;;;;5017769;28;94928;-72
2022/05/10 03:47:49;;;;;;;16.02;12.75;;;16.50;82.80;;;;;;5017953;27;92454;-72
2022/05/10 03:50:19;;;;;;;23.48;13.00;;;16.50;82.80;;;;;;5035089;28;94850;-72
2022/05/10 03:52:46;;;;;;;23.40;13.70;;;16.50;82.80;;;;;;5034962;28;93186;-72
2022/05/10 03:55:17;;;;;;;15.85;13.30;;;16.50;82.90;;;;;;5036012;28;92370;-72
2022/05/10 03:57:45;;;;;;;17.45;13.65;;;16.50;82.80;;;;;;5017808;28;92620;-72
2022/05/10 04:00:19;;;;;;;18.75;13.00;;;16.50;82.70;;;;;;5034947;28;92540;-72
2022/05/10 04:02:48;;;;;;;16.52;14.40;;;16.50;82.70;;;;;;5034709;28;95666;-72
2022/05/10 04:05:17;;;;;;;16.77;15.13;;;16.50;82.70;;;;;;5035870;28;93202;-72
2022/05/10 04:07:44;;;;;;;17.73;14.10;;;16.60;82.70;;;;;;5018593;28;91730;-72
2022/05/10 04:10:13;;;;;;;19.05;13.40;;;16.60;82.70;;;;;;5035981;28;93208;-72
2022/05/10 04:12:41;;;;;;;17.52;13.60;;;16.60;83.30;;;;;;5001114;28;95437;-72
2022/05/10 04:15:10;;;;;;;19.40;14.50;;;16.60;82.60;;;;;;5034744;28;94878;-72
2022/05/10 04:17:37;;;;;;;17.83;14.23;;;16.60;82.60;;;;;;5013881;28;92390;-72
2022/05/10 04:20:08;;;;;;;15.63;13.45;;;16.60;82.70;;;;;;5016143;28;92332;-72
2022/05/10 04:22:35;;;;;;;17.75;13.85;;;16.70;82.80;;;;;;5013978;28;95610;-72
2022/05/10 04:25:12;;;;;;;16.63;14.75;;;16.70;83.00;;;;;;5014103;28;95876;-72
2022/05/10 04:27:39;;;;;;;16.73;14.75;;;16.70;83.10;;;;;;5015683;28;92396;-72
2022/05/10 04:30:07;;;;;;;18.88;14.93;;;16.70;83.20;;;;;;5015207;28;103547;-72
2022/05/10 04:32:36;;;;;;;19.65;15.55;;;16.70;83.10;;;;;;5014345;28;92578;-72
2022/05/10 04:35:04;;;;;;;22.42;13.85;;;16.70;83.30;;;;;;5013788;28;95043;-72
2022/05/10 04:37:32;;;;;;;17.50;13.85;;;16.70;83.30;;;;;;5013868;28;95466;-72
2022/05/10 04:42:45;;;;;;;16.80;14.40;;;16.70;83.20;;;;;;5015606;28;93156;-72
2022/05/10 04:45:13;;;;;;;22.10;17.65;;;16.70;83.20;;;;;;5015222;28;92514;-71
2022/05/10 04:47:41;;;;;;;16.70;14.98;;;16.80;83.20;;;;;;5013487;28;92590;-72
2022/05/10 04:50:09;;;;;;;16.38;13.90;;;16.80;83.10;;;;;;5014249;28;93119;-72
2022/05/10 04:52:36;;;;;;;20.95;15.50;;;16.80;83.10;;;;;;5014949;28;92457;-71
2022/05/10 04:55:05;;;;;;;18.80;14.52;;;16.80;83.20;;;;;;5013994;28;93093;-72
2022/05/10 04:57:35;;;;;;;18.35;15.15;;;16.90;83.20;;;;;;5014339;28;91782;-72
2022/05/10 05:00:07;;;;;;;19.40;15.07;;;17.00;83.10;;;;;;4997344;28;92395;-72
2022/05/10 05:02:35;;;;;;;19.10;14.02;;;17.00;83.00;;;;;;5013723;28;93068;-72
2022/05/10 05:05:03;;;;;;;24.63;15.10;;;17.10;82.90;;;;;;5013692;28;94864;-72
2022/05/10 05:07:30;;;;;;;16.65;14.73;;;17.10;83.00;;;;;;5014832;28;92921;-72
2022/05/10 05:09:57;;;;;;;18.88;14.80;;;17.20;82.90;;;;;;5015186;28;92973;-72
2022/05/10 05:12:24;;;;;;;23.92;15.55;;;17.20;82.70;;;;;;5030323;28;93264;-72
2022/05/10 05:14:51;;;;;;;20.95;14.43;;;17.30;82.60;;;;;;5014905;28;93155;-72
2022/05/10 05:17:20;;;;;;;17.77;15.00;;;17.30;82.70;;;;;;5014946;28;92469;-72
2022/05/10 05:19:47;;;;;;;18.20;14.82;;;17.40;82.40;;;;;;5035395;28;93073;-72
2022/05/10 05:22:14;;;;;;;18.98;15.48;;;17.40;82.10;;;;;;5016642;28;104810;-72
2022/05/10 05:24:41;;;;;;;18.00;14.55;;;17.50;82.00;;;;;;5016409;28;94955;-72
2022/05/10 05:27:08;;;;;;;19.65;15.13;;;17.50;81.60;;;;;;5016869;28;92493;-72
2022/05/10 05:29:35;;;;;;;16.90;13.15;;;17.60;81.30;;;;;;5033793;28;95119;-72
2022/05/10 05:32:27;;;;;;;19.13;14.63;;;17.60;81.10;;;;;;5016660;28;96007;-72
2022/05/10 05:34:57;;;;;;;19.48;14.30;;;17.70;81.00;;;;;;5035105;28;93024;-71
2022/05/10 05:37:33;;;;;;;19.15;14.90;;;17.70;80.90;;;;;;5016842;28;92553;-71
2022/05/10 05:40:10;;;;;;;17.33;13.80;;;17.80;80.70;;;;;;5035065;28;92423;-72
2022/05/10 05:42:44;;;;;;;19.13;14.57;;;17.80;80.40;;;;;;5034725;28;93005;-72
2022/05/10 05:45:13;;;;;;;18.13;16.23;;;17.80;80.30;;;;;;5033314;28;92487;-72
2022/05/10 05:47:40;;;;;;;18.08;14.55;;;17.90;80.30;;;;;;5016401;28;91825;-72
2022/05/10 05:50:10;;;;;;;18.55;13.63;;;17.90;80.20;;;;;;5016696;28;92593;-72
2022/05/10 05:52:37;;;;;;;17.98;13.60;;;18.00;80.00;;;;;;5034428;28;93651;-72
2022/05/10 05:55:05;;;;;;;19.42;15.15;;;18.10;79.80;;;;;;5014947;28;94845;-72
2022/05/10 05:57:32;;;;;;;18.58;14.45;;;18.10;80.30;;;;;;5016410;28;92570;-72
2022/05/10 06:00:00;;;;;;;17.52;14.73;;;18.20;79.40;;;;;;5034638;28;92927;-72
2022/05/10 06:02:38;;;;;;;18.23;15.43;;;18.30;79.00;;;;;;5034012;28;92921;-72
2022/05/10 06:05:06;;;;;;;16.42;14.07;;;18.50;78.70;;;;;;5034275;28;93082;-72
2022/05/10 06:07:34;;;;;;;17.88;15.98;;;18.50;78.50;;;;;;5016074;28;92510;-72
2022/05/10 06:10:01;;;;;;;19.23;15.35;;;18.60;79.00;;;;;;5033087;28;92565;-72
2022/05/10 06:12:28;;;;;;;20.67;14.55;;;18.70;78.30;;;;;;5001073;28;94987;-72
2022/05/10 06:14:55;;;;;;;22.38;15.27;;;18.70;78.00;;;;;;5034624;28;93355;-72
2022/05/10 06:17:23;;;;;;;17.13;15.30;;;18.80;77.90;;;;;;5037707;28;92461;-72
2022/05/10 06:19:50;;;;;;;17.58;14.35;;;18.90;77.40;;;;;;5036689;28;95215;-72
2022/05/10 06:22:17;;;;;;;24.20;15.85;;;19.10;77.20;;;;;;5037608;28;93205;-72
2022/05/10 06:24:45;;;;;;;17.48;14.73;;;19.20;76.90;;;;;;5037433;28;92954;-72
2022/05/10 06:27:14;;;;;;;16.60;14.35;;;19.30;76.80;;;;;;5003328;28;92498;-72
2022/05/10 06:29:42;;;;;;;17.30;14.35;;;19.50;76.60;;;;;;5037192;28;92452;-72
2022/05/10 06:32:11;;;;;;;14.18;12.55;;;19.60;76.40;;;;;;5019294;28;98562;-72
2022/05/10 06:34:39;;;;;;;16.92;12.88;;;19.70;75.80;;;;;;5019128;28;93086;-72
2022/05/10 06:38:16;;;;;;;13.93;12.48;;;19.80;75.10;;;;;;5036430;28;91796;-72
2022/05/10 06:39:54;;;;;;;14.95;13.50;;;20.00;74.80;;;;;;5035384;28;93175;-72
2022/05/10 06:42:24;;;;;;;15.68;12.77;;;20.20;74.40;;;;;;5037350;28;93169;-72
2022/05/10 06:44:51;;;;;;;17.40;13.20;;;20.40;73.50;;;;;;5034358;28;95673;-72
2022/05/10 06:47:18;;;;;;;13.48;12.07;;;20.50;73.30;;;;;;5036138;28;92494;-72
2022/05/10 06:49:45;;;;;;;13.35;11.57;;;20.70;72.70;;;;;;5037437;28;92423;-72
2022/05/10 06:52:17;;;;;;;15.00;12.57;;;20.90;72.10;;;;;;5018828;28;94762;-72
2022/05/10 06:54:45;;;;;;;14.32;11.35;;;21.10;71.50;;;;;;5036948;28;92958;-72
2022/05/10 06:57:12;;;;;;;16.05;11.82;;;21.30;70.70;;;;;;5037381;28;92407;-72
2022/05/10 06:59:39;;;;;;;13.65;11.48;;;21.50;70.00;;;;;;5034078;28;98578;-72
2022/05/10 07:02:06;;;;;;;13.13;11.80;;;21.70;69.70;;;;;;5029462;28;98623;-72
2022/05/10 07:04:33;;;;;;;12.18;10.75;;;21.90;68.80;;;;;;5033830;28;98425;-72
2022/05/10 07:07:00;;;;;;;11.57;10.38;;;22.10;68.40;;;;;;5033873;28;98426;-72
2022/05/10 07:09:27;;;;;;;11.25;10.25;;;22.30;67.70;;;;;;5033647;28;99219;-73
2022/05/10 07:11:58;;;;;;;13.15;9.98;;;22.40;66.60;;;;;;5033736;28;99417;-72
2022/05/10 07:14:25;;;;;;;10.00;9.00;;;22.60;66.30;;;;;;5032309;28;99010;-72
2022/05/10 07:16:52;;;;;;;12.32;9.30;;;22.70;65.80;;;;;;5016503;28;98548;-73
2022/05/10 07:19:19;;;;;;;13.82;8.70;;;22.80;65.40;;;;;;5033316;28;99133;-72
2022/05/10 07:21:48;;;;;;;10.77;9.75;;;22.90;65.10;;;;;;5033769;27;99275;-72
2022/05/10 07:24:19;;;;;;;13.13;10.80;;;23.00;64.40;;;;;;5033391;27;99992;-72
2022/05/10 07:26:47;;;;;;;12.35;9.15;;;23.00;64.20;;;;;;5033496;28;97795;-73
2022/05/10 07:29:16;;;;;;;12.50;9.75;;;23.10;64.00;;;;;;5033985;28;98835;-73
2022/05/10 07:31:43;;;;;;;10.27;8.13;;;23.10;63.40;;;;;;5015297;28;101765;-72
2022/05/10 07:34:11;;;;;;;11.43;8.90;;;23.20;63.20;;;;;;5033624;28;99259;-72
2022/05/10 07:36:38;;;;;;;9.80;8.25;;;23.30;63.20;;;;;;5033967;27;98559;-72
2022/05/10 07:39:11;;;;;;;11.10;9.38;;;23.40;62.70;;;;;;5034047;28;98488;-72
2022/05/10 07:41:38;;;;;;;12.98;7.47;;;23.60;61.70;;;;;;5034020;28;99355;-72
2022/05/10 07:44:06;;;;;;;11.15;8.07;;;23.80;61.70;;;;;;5033420;28;100205;-72
2022/05/10 07:46:33;;;;;;;12.05;8.40;;;24.00;60.80;;;;;;5034109;28;98582;-72
2022/05/10 07:49:00;;;;;;;12.02;8.48;;;24.20;60.40;;;;;;5015738;28;98574;-73
2022/05/10 07:51:27;;;;;;;12.00;8.25;;;24.40;59.70;;;;;;5015635;28;101465;-73
2022/05/10 07:53:54;;;;;;;12.05;8.13;;;24.70;58.00;;;;;;5015319;28;98492;-73
2022/05/10 07:56:24;;;;;;;10.70;8.48;;;24.90;57.20;;;;;;5034011;28;98445;-73
2022/05/10 07:58:53;;;;;;;12.32;9.07;;;25.10;56.40;;;;;;5033334;28;99409;-73
2022/05/10 08:01:21;;;;;;;12.75;9.38;;;25.50;56.10;;;;;;5032236;28;99222;-73
2022/05/10 08:03:48;;;;;;;12.07;8.20;;;25.70;54.80;;;;;;5014897;28;101708;-73
2022/05/10 08:06:18;;;;;;;9.55;8.50;;;26.20;53.70;;;;;;5033657;28;98588;-73
2022/05/10 08:08:45;;;;;;;13.93;10.73;;;26.70;52.50;;;;;;5033443;28;98517;-73
2022/05/10 08:11:12;;;;;;;12.23;9.70;;;27.30;51.10;;;;;;5032072;28;112473;-73
2022/05/10 08:13:39;;;;;;;9.75;8.93;;;28.00;50.10;;;;;;5015073;28;101036;-73
2022/05/10 08:16:09;;;;;;;9.05;8.15;;;28.60;48.70;;;;;;5033871;28;98226;-73
2022/05/10 08:18:41;;;;;;;10.18;8.52;;;29.20;47.10;;;;;;5033492;28;98619;-73
2022/05/10 08:21:08;;;;;;;11.45;8.55;;;29.90;45.40;;;;;;5033295;28;99226;-73
2022/05/10 08:23:36;;;;;;;13.07;8.30;;;30.20;44.10;;;;;;5014592;28;101542;-73
2022/05/10 08:26:05;;;;;;;8.90;8.05;;;30.60;43.20;;;;;;5033235;28;98525;-73
2022/05/10 08:28:34;;;;;;;8.77;7.38;;;30.80;42.10;;;;;;5033346;28;98576;-73
2022/05/10 08:31:06;;;;;;;10.55;9.60;;;30.90;41.40;;;;;;5014676;28;101745;-73
2022/05/10 08:33:36;;;;;;;11.15;7.97;;;31.00;40.90;;;;;;5032928;28;102980;-73
2022/05/10 08:36:04;;;;;;;10.30;9.13;;;31.00;41.10;;;;;;5014136;28;99222;-73
2022/05/10 08:38:31;;;;;;;10.23;7.95;;;31.10;40.90;;;;;;5015262;28;98626;-73
2022/05/10 08:41:11;;;;;;;10.38;7.30;;;31.20;40.30;;;;;;5014797;28;101450;-73
2022/05/10 08:43:51;;;;;;;9.40;7.40;;;31.40;40.10;;;;;;5033025;28;98628;-73
2022/05/10 08:46:29;;;;;;;8.68;6.47;;;31.40;39.80;;;;;;5033261;28;98588;-73
2022/05/10 08:49:10;;;;;;;10.65;6.07;;;31.40;39.40;;;;;;5014313;28;99708;-73
2022/05/10 08:51:37;;;;;;;8.35;5.40;;;31.20;39.30;;;;;;5031686;28;99361;-73
2022/05/10 08:54:04;;;;;;;9.10;6.38;;;30.90;39.60;;;;;;5032352;28;99311;-73
2022/05/10 08:56:39;;;;;;;9.23;6.32;;;30.70;39.40;;;;;;5014729;28;98485;-73
2022/05/10 08:59:25;;;;;;;8.52;6.40;;;30.40;39.90;;;;;;5032773;28;98421;-73
2022/05/10 09:02:03;;;;;;;7.47;6.60;;;29.90;40.10;;;;;;5032634;28;99416;-73
2022/05/10 09:04:51;;;;;;;8.90;6.15;;;29.70;41.20;;;;;;5032574;28;98974;-73
2022/05/10 09:07:26;;;;;;;9.93;6.30;;;29.30;41.50;;;;;;5033103;28;97716;-73
2022/05/10 09:10:12;;;;;;;11.52;7.95;;;28.90;42.00;;;;;;5014733;28;98741;-73
2022/05/10 09:12:58;;;;;;;9.82;5.75;;;28.70;42.90;;;;;;5014053;28;100503;-73
2022/05/10 09:15:29;;;;;;;11.35;7.15;;;28.40;43.40;;;;;;5030522;28;99442;-73
2022/05/10 09:17:56;;;;;;;9.23;7.53;;;28.10;44.00;;;;;;5015620;28;99134;-73
2022/05/10 09:20:23;;;;;;;7.28;6.45;;;27.80;44.00;;;;;;5032614;28;98630;-73
2022/05/10 09:23:06;;;;;;;7.57;5.85;;;27.80;44.60;;;;;;5032253;28;99482;-73
2022/05/10 09:25:35;;;;;;;7.75;7.05;;;27.70;44.90;;;;;;5032483;28;99046;-73
2022/05/10 09:28:27;;;;;;;7.90;5.43;;;27.60;45.10;;;;;;5013382;28;107749;-73
2022/05/10 09:37:13;;;;;;;7.20;6.47;;;27.40;45.90;;;;;;4989770;28;98571;-73
2022/05/10 09:39:48;;;;;;;7.32;6.60;;;27.30;46.30;;;;;;4993391;28;98570;-73
2022/05/10 09:42:29;;;;;;;8.77;7.07;;;27.30;47.00;;;;;;5013680;28;99516;-73
2022/05/10 09:45:05;;;;;;;7.82;7.05;;;27.20;47.10;;;;;;5030131;28;99391;-73
2022/05/10 09:47:33;;;;;;;10.75;8.27;;;27.20;47.80;;;;;;5034982;27;98899;-73
2022/05/10 09:50:17;;;;;;;9.65;7.05;;;27.10;48.00;;;;;;5035478;28;98874;-73
2022/05/10 09:52:45;;;;;;;14.20;7.95;;;27.10;47.90;;;;;;5036121;28;98407;-73
2022/05/10 09:55:31;;;;;;;9.50;8.40;;;27.00;48.40;;;;;;5035170;28;104539;-73
2022/05/10 09:58:13;;;;;;;10.20;7.50;;;27.00;48.50;;;;;;5017669;28;101955;-73
2022/05/10 10:00:45;;;;;;;12.52;8.02;;;27.00;49.10;;;;;;5000908;28;97803;-73
2022/05/10 10:03:32;;;;;;;8.37;7.20;;;26.80;49.40;;;;;;5034243;28;98574;-73
2022/05/10 10:06:22;;;;;;;12.55;7.85;;;26.80;49.40;;;;;;5035356;28;99203;-73
2022/05/10 10:08:57;;;;;;;8.77;7.93;;;26.90;49.60;;;;;;5034303;28;99375;-73
2022/05/10 10:11:31;;;;;;;12.77;7.65;;;27.00;49.70;;;;;;5035333;28;98587;-73
2022/05/10 10:14:00;;;;;;;;;;;27.10;49.70;;;;;;5035265;28;98576;-73
2022/05/10 10:16:33;;;;;;;8.35;7.20;;;27.20;49.50;;;;;;5035971;28;99269;-73
2022/05/10 10:19:11;;;;;;;8.38;7.57;;;27.40;49.20;;;;;;5035377;28;99241;-73
2022/05/10 10:21:47;;;;;;;8.85;6.80;;;27.50;49.20;;;;;;5035313;28;98493;-73
2022/05/10 10:24:26;;;;;;;10.05;7.32;;;27.70;48.50;;;;;;5035472;28;98406;-72
2022/05/10 10:26:57;;;;;;;8.32;7.20;;;27.70;48.60;;;;;;5034187;28;98531;-73
2022/05/10 10:29:37;;;;;;;9.05;7.30;;;27.80;48.40;;;;;;5034942;28;99411;-73
2022/05/10 10:32:32;;;;;;;8.35;7.25;;;27.80;48.10;;;;;;5034457;28;99074;-73
2022/05/10 10:35:39;;;;;;;9.82;6.40;;;28.00;48.30;;;;;;5034901;28;99835;-73
2022/05/10 10:38:11;;;;;;;9.90;6.95;;;28.10;48.40;;;;;;4999869;28;101757;-73
2022/05/10 10:40:47;;;;;;;7.97;6.18;;;28.00;48.40;;;;;;5034673;28;99284;-73
2022/05/10 10:43:31;;;;;;;8.00;7.28;;;28.10;48.20;;;;;;5017260;28;98641;-73
2022/05/10 10:46:04;;;;;;;11.63;10.60;;;28.30;47.90;;;;;;5035333;28;98841;-73
2022/05/10 10:48:56;;;;;;;7.60;5.47;;;28.30;47.00;;;;;;5015529;28;100225;-73
2022/05/10 10:51:29;;;;;;;6.72;6.10;;;28.40;47.00;;;;;;5016152;28;100035;-73
2022/05/10 10:53:58;;;;;;;9.82;6.00;;;28.20;46.30;;;;;;5033696;28;97917;-73
2022/05/10 10:56:28;;;;;;;8.20;6.10;;;28.30;46.80;;;;;;5034687;28;98585;-73
2022/05/10 10:59:22;;;;;;;6.75;6.05;;;28.40;46.50;;;;;;5033520;28;99279;-73
2022/05/10 11:02:07;;;;;;;9.50;5.93;;;28.60;46.30;;;;;;5015930;28;99423;-73
2022/05/10 11:04:52;;;;;;;9.70;5.97;;;28.60;46.10;;;;;;5034757;28;99510;-73
2022/05/10 11:07:56;;;;;;;7.00;5.43;;;28.60;45.40;;;;;;5015760;28;99145;-73
2022/05/10 11:10:29;;;;;;;;;;;28.70;45.00;;;;;;4993162;28;101841;-73
2022/05/10 11:13:11;;;;;;;7.72;5.32;;;28.40;45.00;;;;;;5017297;28;101351;-73
2022/05/10 11:15:50;;;;;;;7.07;6.38;;;28.60;45.50;;;;;;5032651;28;98572;-73
2022/05/10 11:18:45;;;;;;;8.05;5.32;;;28.60;45.40;;;;;;5034525;28;98392;-73
2022/05/10 11:21:38;;;;;;;11.73;6.13;;;28.70;45.60;;;;;;5017178;28;101047;-73
2022/05/10 11:24:28;;;;;;;6.60;5.63;;;28.70;45.40;;;;;;5034372;28;99074;-73
2022/05/10 11:27:29;;;;;;;8.23;5.30;;;28.80;45.50;;;;;;5016200;28;98629;-73
2022/05/10 11:30:30;;;;;;;8.23;5.85;;;28.80;45.40;;;;;;5015735;28;99215;-73
2022/05/10 11:33:23;;;;;;;7.80;5.72;;;28.70;45.30;;;;;;4996377;28;99542;-73
2022/05/10 11:36:21;;;;;;;7.72;6.53;;;28.60;45.00;;;;;;4998195;28;99121;-73
2022/05/10 11:39:02;;;;;;;9.20;5.50;;;28.60;45.40;;;;;;5016460;28;99076;-73
2022/05/10 11:41:41;;;;;;;8.45;5.85;;;28.40;46.10;;;;;;5016095;28;98650;-73
2022/05/10 11:44:30;;;;;;;12.75;9.40;;;28.50;46.10;;;;;;5015619;28;100504;-73
2022/05/10 11:47:06;;;;;;;11.60;5.90;;;28.60;46.30;;;;;;4993149;28;99107;-73
2022/05/10 11:50:11;;;;;;;8.23;6.90;;;28.60;46.40;;;;;;5033139;28;97790;-73
2022/05/10 11:52:57;;;;;;;8.98;6.03;;;28.60;46.20;;;;;;5032990;28;98572;-73
2022/05/10 11:55:32;;;;;;;7.05;6.35;;;28.40;46.50;;;;;;5015365;28;99463;-73
2022/05/10 11:58:03;;;;;;;12.05;6.97;;;28.20;47.10;;;;;;5033122;28;99136;-73
2022/05/10 12:00:33;;;;;;;14.05;6.90;;;27.90;47.90;;;;;;5015623;28;98536;-73
2022/05/10 12:03:05;;;;;;;8.48;6.30;;;27.80;48.90;;;;;;5033760;28;98515;-73
2022/05/10 12:05:39;;;;;;;13.10;8.77;;;27.60;49.90;;;;;;5014957;28;100237;-73
2022/05/10 12:08:15;;;;;;;10.70;8.05;;;27.40;52.40;;;;;;5033376;28;98961;-73
2022/05/10 12:10:43;;;;;;;13.60;7.20;;;27.30;53.90;;;;;;5032485;27;98549;-73
2022/05/10 12:22:53;;;;;;;7.82;5.78;;;28.10;49.30;;;;;;5033706;28;98497;-73
2022/05/10 12:25:53;;;;;;;9.85;6.80;;;28.40;48.10;;;;;;5033072;28;99621;-73
2022/05/10 12:28:38;;;;;;;11.25;7.18;;;28.80;47.60;;;;;;5015176;28;99582;-73
2022/05/10 12:31:23;;;;;;;9.70;6.45;;;29.00;46.40;;;;;;5033209;28;99138;-73
2022/05/10 12:34:09;;;;;;;12.98;6.22;;;29.30;45.90;;;;;;5033278;28;98494;-73
2022/05/10 12:36:43;;;;;;;8.65;7.28;;;29.50;45.40;;;;;;5033162;28;98433;-73
2022/05/10 12:39:26;;;;;;;7.65;6.00;;;29.50;44.70;;;;;;5033082;28;99240;-73
2022/05/10 12:42:00;;;;;;;13.50;6.03;;;29.60;44.60;;;;;;5032971;28;98926;-73
2022/05/10 12:44:33;;;;;;;11.02;6.55;;;29.60;44.10;;;;;;5033748;28;97844;-73
2022/05/10 12:47:34;;;;;;;8.55;5.75;;;29.70;43.90;;;;;;4998240;28;99130;-73
2022/05/10 12:50:01;;;;;;;10.93;5.47;;;29.80;43.70;;;;;;5032806;28;99225;-73
2022/05/10 12:52:39;;;;;;;11.63;6.35;;;29.60;43.80;;;;;;5032573;28;99329;-73
2022/05/10 12:55:16;;;;;;;8.90;5.95;;;29.50;43.60;;;;;;5033314;28;98581;-73
2022/05/10 12:57:47;;;;;;;12.35;5.88;;;29.50;44.00;;;;;;5014333;28;98612;-73
2022/05/10 13:00:49;;;;;;;8.35;5.55;;;29.60;43.90;;;;;;5032536;28;99234;-73
2022/05/10 13:03:22;;;;;;;14.18;6.32;;;29.70;43.40;;;;;;5023883;28;99297;-73
2022/05/10 13:06:07;;;;;;;;;;;29.80;43.60;;;;;;5033552;28;98483;-73
2022/05/10 13:08:58;;;;;;;12.68;6.50;;;29.60;43.00;;;;;;5033674;28;98520;-73
2022/05/10 13:11:46;;;;;;;12.18;6.63;;;29.70;43.40;;;;;;5032714;28;98658;-73
2022/05/10 13:14:15;;;;;;;16.70;5.95;;;29.80;42.60;;;;;;5032101;28;98492;-73
2022/05/10 13:16:48;;;;;;;11.55;5.80;;;29.90;42.80;;;;;;5032714;28;98433;-73
2022/05/10 13:19:20;;;;;;;11.50;5.78;;;30.00;43.00;;;;;;5032814;28;99614;-73
2022/05/10 13:21:53;;;;;;;12.80;5.10;;;29.90;42.50;;;;;;5031711;28;99410;-73
2022/05/10 13:24:20;;;;;;;10.70;5.80;;;29.80;42.80;;;;;;5032198;28;99055;-73
2022/05/10 13:26:58;;;;;;;9.90;5.05;;;29.60;42.80;;;;;;5032625;28;98502;-73
2022/05/10 13:29:42;;;;;;;10.50;6.72;;;29.40;43.20;;;;;;5032529;28;98477;-73